Hauptseite
METAR-TAF:

METAR-TAF

Flughäfen :

Flughafen Saint-Yan

Saint-Yan, Frankreich

Breite: 46-24-45N, Länge: 004-00-48E, Höhe: 244 m

Beobachtung

Neuester Wetterbericht von vor 32 Minuten, um 04:00 UTC
Wind 4 kt aus Ost, variierte zwischen Nordost und Ost
Temperatur -1°C
Luftfeuchtigkeit 86%
Luftdruck 1023 hPa
Sichtweite: 9000 m

METAR: LFLN 170400Z AUTO 08004KT 040V100 9000 NSC M01/M03 Q1023

Zeit: 05:32 (04:32 UTC)

Prognose

Neuester Wetterbericht von vor 11 Stunden und 32 Minuten, um 17:00 UTC
Gültige Prognose vom 16 um 18 UTC bis 17 um 03 UTC
Wind 3 kt aus unterschiedlichen Richtungen
Sichtweite 10 km oder mehr
keine Wolken unter 1500 m und keine Kumulonimbus oder Gewitterwolken
Zeitweise
vom 17 um 00 UTC bis 17 um 03 UTC
Wind 5 kt aus Ost/Nordost

TAF: LFLN 161700Z 1618/1703 VRB03KT CAVOK TEMPO 1700/1703 06005KT

Wetterbeobachtungen und Prognosen von mehr als 4000 Flughäfen (METAR und TAF Bericht).

Die verfügbaren Stationen werden durch gelbe und rote Markierungen auf der Karte dargestellt.

Führen Sie die Maus auf sie, um den Namen der Station zu sehen.

Darauf klicken, um die Beobachtung von Wetterbeobachtungen und Prognosen zu sehen.

Um die Karte zu ändern : klicken Sie auf den grünen Tasten mit einem schwarzen Kreuz Zum Vergrößern, auf den grünen Button mit einem Gedankenstrich zu verkleinern, oder auf die grünen Pfeile für benachbarte Karten.


METAR-TAF: